Terminal Aerodrome Forecast
Issued by NWS Charleston, WV

Current Version | Previous Version | Graphics & Text | Print | Product List | Glossary On
Versions: 1 2 3 4 5 6 7 8 9 10 11 12 13 14 15 16 17 18 19 20 21 22 23 24 25
000
FTUS41 KRLX 141733
TAFHTS
TAF
KHTS 141733Z 1418/1518 20006KT P6SM -SHRA OVC050
     FM150600 00000KT 4SM BR BKN035
     FM150900 00000KT 2SM BR BKN030
     FM151300 00000KT 3SM BR BKN035
     FM151400 23004KT P6SM BKN040=

USA.gov is the U.S. government's official web portal to all federal, state and local government web resources and services.